createdAt,value
2022-12-18T00:02:15.066Z,7.28
2022-12-18T00:04:41.758Z,7.28
2022-12-18T00:07:08.484Z,7.82
2022-12-18T00:09:40.257Z,7.47
2022-12-18T00:14:45.292Z,6.30
2022-12-18T00:19:38.333Z,6.78
2022-12-18T00:22:04.972Z,7.10
2022-12-18T00:24:31.615Z,7.50
2022-12-18T00:26:58.213Z,6.63
2022-12-18T00:29:24.961Z,7.05
2022-12-18T00:31:51.625Z,7.05
2022-12-18T00:34:18.222Z,7.50
2022-12-18T00:36:44.820Z,6.80
2022-12-18T00:39:12.150Z,6.47
2022-12-18T00:41:57.394Z,6.28
2022-12-18T00:44:23.929Z,6.53
2022-12-18T00:46:50.538Z,5.72
2022-12-18T00:49:18.762Z,5.75
2022-12-18T00:51:46.468Z,5.75
2022-12-18T00:54:13.550Z,6.57
2022-12-18T00:56:48.451Z,6.47
2022-12-18T00:59:16.398Z,6.05
2022-12-18T01:01:46.073Z,6.82
2022-12-18T01:04:12.947Z,5.63
2022-12-18T01:06:39.542Z,6.57
2022-12-18T01:09:06.880Z,5.45
2022-12-18T01:11:33.475Z,5.68
2022-12-18T01:14:00.035Z,6.43
2022-12-18T01:16:26.771Z,4.90
2022-12-18T01:18:55.299Z,4.80
2022-12-18T01:21:25.123Z,5.22
2022-12-18T01:23:53.370Z,5.40
2022-12-18T01:26:20.167Z,4.72
2022-12-18T01:28:46.734Z,4.72
2022-12-18T01:31:23.175Z,5.30
2022-12-18T01:33:50.887Z,4.97
2022-12-18T01:36:19.634Z,4.72
2022-12-18T01:38:46.535Z,4.25
2022-12-18T01:41:14.060Z,4.75
2022-12-18T01:43:46.671Z,4.90
2022-12-18T01:46:13.904Z,4.60
2022-12-18T01:48:41.083Z,4.15
2022-12-18T01:51:09.419Z,4.80
2022-12-18T01:53:37.771Z,4.45
2022-12-18T01:56:04.662Z,5.10
2022-12-18T01:58:44.534Z,4.53
2022-12-18T02:01:11.136Z,4.55
2022-12-18T02:03:38.037Z,4.80
2022-12-18T02:06:11.516Z,4.45
2022-12-18T02:09:07.063Z,4.78
2022-12-18T02:11:46.435Z,4.70
2022-12-18T02:17:08.477Z,4.80
2022-12-18T02:19:44.825Z,4.93
2022-12-18T02:22:35.788Z,4.95
2022-12-18T02:25:30.298Z,5.38
2022-12-18T02:28:00.028Z,4.85
2022-12-18T02:30:28.059Z,6.20
2022-12-18T02:32:55.855Z,6.20
2022-12-18T02:35:25.321Z,5.57
2022-12-18T02:37:55.291Z,6.03
2022-12-18T02:40:23.247Z,5.93
2022-12-18T02:42:50.018Z,6.00
2022-12-18T02:45:16.852Z,5.70
2022-12-18T02:47:47.546Z,6.63
2022-12-18T02:50:29.814Z,6.05
2022-12-18T02:53:23.146Z,6.22
2022-12-18T02:56:18.573Z,6.40
2022-12-18T02:58:55.349Z,5.75
2022-12-18T03:01:39.879Z,5.88
2022-12-18T03:04:15.347Z,5.32
2022-12-18T03:06:44.856Z,6.25
2022-12-18T03:11:59.813Z,5.63
2022-12-18T03:14:28.177Z,5.60
2022-12-18T03:16:59.858Z,6.53
2022-12-18T03:19:29.608Z,5.68
2022-12-18T03:21:58.447Z,5.65
2022-12-18T03:24:27.745Z,6.05
2022-12-18T03:26:56.476Z,5.57
2022-12-18T03:29:27.557Z,5.68
2022-12-18T03:31:58.161Z,4.97
2022-12-18T03:34:29.878Z,4.93
2022-12-18T03:36:56.565Z,5.15
2022-12-18T03:39:23.178Z,5.60
2022-12-18T03:41:57.166Z,5.00
2022-12-18T03:44:41.953Z,5.75
2022-12-18T03:47:15.009Z,4.93
2022-12-18T03:50:07.122Z,4.10
2022-12-18T03:52:53.483Z,5.03
2022-12-18T03:55:20.899Z,4.40
2022-12-18T03:57:48.958Z,4.50
2022-12-18T04:00:18.763Z,4.75
2022-12-18T04:02:53.088Z,5.70
2022-12-18T04:05:20.608Z,5.18
2022-12-18T04:07:48.985Z,4.72
2022-12-18T04:10:16.947Z,5.93
2022-12-18T04:12:43.576Z,5.00
2022-12-18T04:15:11.839Z,5.25
2022-12-18T04:17:39.316Z,5.55
2022-12-18T04:20:06.555Z,5.18
2022-12-18T04:22:33.104Z,5.35
2022-12-18T04:24:59.676Z,5.28
2022-12-18T04:27:26.234Z,4.75
2022-12-18T04:29:52.791Z,5.50
2022-12-18T04:32:19.402Z,4.88
2022-12-18T04:34:45.949Z,5.25
2022-12-18T04:37:12.496Z,5.43
2022-12-18T04:39:39.058Z,4.88
2022-12-18T04:42:05.744Z,5.28
2022-12-18T04:44:32.307Z,5.32
2022-12-18T04:46:58.924Z,4.90
2022-12-18T04:49:25.491Z,5.68
2022-12-18T04:51:52.661Z,4.93
2022-12-18T04:54:20.407Z,5.10
2022-12-18T04:56:47.715Z,5.20
2022-12-18T04:59:14.287Z,5.15
2022-12-18T05:01:41.385Z,5.18
2022-12-18T05:04:08.401Z,6.20
2022-12-18T05:06:35.107Z,5.18
2022-12-18T05:09:01.723Z,5.72
2022-12-18T05:11:28.257Z,5.43
2022-12-18T05:13:54.794Z,4.72
2022-12-18T05:16:21.465Z,5.50
2022-12-18T05:18:48.035Z,5.95
2022-12-18T05:21:14.552Z,6.47
2022-12-18T05:23:41.597Z,5.97
2022-12-18T05:26:20.298Z,5.53
2022-12-18T05:28:47.076Z,5.10
2022-12-18T05:31:14.084Z,5.80
2022-12-18T05:33:41.056Z,6.63
2022-12-18T05:36:09.703Z,5.30
2022-12-18T05:38:37.964Z,5.60
2022-12-18T05:41:04.952Z,5.95
2022-12-18T05:43:31.959Z,5.65
2022-12-18T05:45:58.539Z,5.32
2022-12-18T05:48:25.195Z,5.65
2022-12-18T05:50:52.111Z,5.60
2022-12-18T05:53:20.386Z,4.80
2022-12-18T05:55:47.797Z,5.13
2022-12-18T05:58:15.361Z,4.88
2022-12-18T06:00:43.778Z,5.20
2022-12-18T06:03:11.663Z,5.55
2022-12-18T06:05:39.776Z,6.10
2022-12-18T06:08:06.549Z,5.45
2022-12-18T06:10:33.323Z,5.55
2022-12-18T06:12:59.977Z,5.88
2022-12-18T06:15:26.718Z,5.40
2022-12-18T06:17:53.333Z,5.75
2022-12-18T06:20:20.121Z,5.55
2022-12-18T06:22:46.633Z,5.50
2022-12-18T06:25:13.227Z,5.25
2022-12-18T06:27:39.775Z,5.72
2022-12-18T06:30:07.514Z,5.15
2022-12-18T06:32:34.075Z,5.93
2022-12-18T06:35:00.643Z,5.28
2022-12-18T06:37:27.228Z,5.75
2022-12-18T06:39:57.544Z,5.13
2022-12-18T06:42:25.112Z,5.68
2022-12-18T06:44:51.848Z,4.78
2022-12-18T06:47:18.935Z,5.22
2022-12-18T06:49:45.477Z,5.22
2022-12-18T06:52:11.984Z,5.50
2022-12-18T06:54:38.494Z,5.47
2022-12-18T06:57:05.055Z,5.07
2022-12-18T06:59:31.607Z,5.30
2022-12-18T07:01:58.274Z,5.22
2022-12-18T07:04:32.065Z,5.28
2022-12-18T07:06:58.833Z,5.38
2022-12-18T07:09:25.613Z,5.20
2022-12-18T07:11:53.047Z,5.50
2022-12-18T07:14:19.596Z,5.07
2022-12-18T07:16:46.187Z,5.75
2022-12-18T07:19:12.795Z,5.30
2022-12-18T07:21:39.431Z,5.72
2022-12-18T07:24:06.624Z,5.55
2022-12-18T07:26:33.230Z,5.85
2022-12-18T07:28:59.813Z,5.35
2022-12-18T07:31:27.388Z,5.57
2022-12-18T07:33:54.586Z,5.03
2022-12-18T07:36:24.272Z,5.65
2022-12-18T07:38:52.498Z,4.90
2022-12-18T07:41:19.841Z,5.35
2022-12-18T07:43:46.891Z,5.07
2022-12-18T07:46:17.416Z,5.57
2022-12-18T07:48:45.528Z,5.25
2022-12-18T07:51:16.299Z,5.78
2022-12-18T07:53:43.591Z,4.88
2022-12-18T07:56:27.093Z,6.30
2022-12-18T07:58:55.094Z,5.03
2022-12-18T08:01:21.795Z,5.55
2022-12-18T08:03:48.495Z,5.15
2022-12-18T08:06:16.428Z,5.85
2022-12-18T08:08:43.301Z,5.32
2022-12-18T08:11:09.823Z,4.88
2022-12-18T08:13:36.613Z,5.88
2022-12-18T08:16:06.284Z,5.82
2022-12-18T08:18:37.305Z,4.97
2022-12-18T08:21:11.727Z,5.10
2022-12-18T08:23:42.663Z,4.90
2022-12-18T08:26:11.012Z,4.68
2022-12-18T08:28:37.579Z,4.78
2022-12-18T08:31:04.985Z,5.00
2022-12-18T08:33:31.792Z,4.07
2022-12-18T08:35:59.944Z,4.35
2022-12-18T08:38:26.532Z,5.00
2022-12-18T08:41:07.600Z,4.90
2022-12-18T08:43:52.690Z,4.30
2022-12-18T08:46:20.287Z,4.22
2022-12-18T08:48:47.436Z,4.28
2022-12-18T08:51:14.513Z,4.38
2022-12-18T08:53:41.541Z,4.07
2022-12-18T08:56:08.654Z,4.38
2022-12-18T08:58:35.275Z,4.78
2022-12-18T09:01:06.627Z,4.95
2022-12-18T09:03:34.014Z,4.57
2022-12-18T09:06:00.703Z,4.65
2022-12-18T09:08:27.618Z,4.45
2022-12-18T09:10:54.156Z,4.70
2022-12-18T09:13:20.874Z,4.30
2022-12-18T09:15:53.048Z,4.57
2022-12-18T09:18:21.735Z,5.25
2022-12-18T09:20:48.502Z,4.57
2022-12-18T09:23:15.483Z,4.60
2022-12-18T09:25:44.538Z,5.32
2022-12-18T09:28:13.779Z,3.80
2022-12-18T09:30:42.192Z,4.30
2022-12-18T09:33:08.774Z,4.47
2022-12-18T09:35:39.717Z,4.70
2022-12-18T09:38:06.531Z,4.95
2022-12-18T09:40:57.939Z,5.07
2022-12-18T09:43:29.818Z,5.18
2022-12-18T09:46:01.252Z,5.25
2022-12-18T09:48:41.386Z,5.45
2022-12-18T09:51:21.042Z,4.88
2022-12-18T09:53:54.951Z,4.47
2022-12-18T09:56:23.837Z,4.88
2022-12-18T09:58:56.473Z,4.70
2022-12-18T10:01:30.351Z,5.63
2022-12-18T10:04:02.223Z,5.13
2022-12-18T10:06:37.945Z,5.45
2022-12-18T10:09:16.467Z,5.65
2022-12-18T10:11:58.231Z,5.03
2022-12-18T10:14:33.847Z,5.40
2022-12-18T10:17:21.533Z,4.95
2022-12-18T10:19:52.543Z,4.85
2022-12-18T10:22:25.124Z,5.57
2022-12-18T10:25:11.396Z,5.00
2022-12-18T10:27:37.911Z,5.75
2022-12-18T10:30:14.110Z,5.10
2022-12-18T10:32:40.594Z,5.80
2022-12-18T10:35:16.716Z,5.45
2022-12-18T10:38:07.648Z,5.70
2022-12-18T10:40:54.706Z,6.18
2022-12-18T10:43:32.923Z,5.80
2022-12-18T10:46:08.653Z,5.07
2022-12-18T10:48:38.403Z,5.20
2022-12-18T10:51:13.116Z,4.82
2022-12-18T10:53:41.527Z,5.32
2022-12-18T10:58:38.407Z,5.20
2022-12-18T11:01:08.145Z,5.70
2022-12-18T11:03:46.275Z,5.88
2022-12-18T11:06:16.917Z,5.47
2022-12-18T11:08:45.738Z,5.78
2022-12-18T11:11:23.445Z,5.55
2022-12-18T11:14:05.716Z,5.80
2022-12-18T11:16:38.521Z,4.97
2022-12-18T11:19:28.614Z,5.65
2022-12-18T11:21:55.387Z,5.45
2022-12-18T11:24:33.449Z,5.53
2022-12-18T11:27:02.814Z,5.82
2022-12-18T11:29:43.248Z,5.20
2022-12-18T11:32:15.846Z,5.32
2022-12-18T11:37:14.567Z,4.93
2022-12-18T11:39:50.352Z,5.45
2022-12-18T11:42:37.084Z,5.90
2022-12-18T11:45:19.601Z,5.50
2022-12-18T11:47:56.036Z,4.97
2022-12-18T11:50:37.884Z,5.88
2022-12-18T11:53:06.473Z,5.43
2022-12-18T11:56:04.491Z,6.43
2022-12-18T11:58:49.089Z,5.53
2022-12-18T12:01:44.215Z,5.50
2022-12-18T12:04:23.204Z,5.25
2022-12-18T12:07:03.405Z,6.53
2022-12-18T12:09:59.053Z,5.57
2022-12-18T12:12:48.650Z,5.57
2022-12-18T12:15:36.922Z,5.70
2022-12-18T12:18:14.361Z,5.03
2022-12-18T12:21:30.717Z,5.00
2022-12-18T12:23:57.366Z,4.85
2022-12-18T12:26:27.107Z,4.85
2022-12-18T12:28:57.807Z,5.43
2022-12-18T12:31:57.947Z,5.30
2022-12-18T12:34:27.576Z,4.88
2022-12-18T12:39:32.088Z,4.82
2022-12-18T12:42:17.644Z,5.03
2022-12-18T12:44:52.730Z,5.15
2022-12-18T12:47:26.265Z,4.65
2022-12-18T12:49:53.079Z,4.85
2022-12-18T12:52:34.841Z,4.68
2022-12-18T12:55:15.192Z,4.80
2022-12-18T12:57:46.315Z,5.10
2022-12-18T13:00:15.990Z,5.15
2022-12-18T13:02:52.721Z,5.03
2022-12-18T13:05:31.171Z,4.63
2022-12-18T13:07:58.641Z,5.20
2022-12-18T13:10:28.074Z,4.85
2022-12-18T13:13:07.267Z,5.22
2022-12-18T13:15:46.277Z,4.80
2022-12-18T13:18:17.964Z,4.50
2022-12-18T13:20:50.764Z,4.38
2022-12-18T13:23:29.632Z,4.47
2022-12-18T13:26:00.179Z,4.90
2022-12-18T13:28:46.117Z,4.57
2022-12-18T13:31:13.718Z,3.95
2022-12-18T13:34:01.961Z,4.97
2022-12-18T13:36:28.476Z,4.55
2022-12-18T13:39:18.452Z,4.80
2022-12-18T13:41:49.146Z,5.07
2022-12-18T13:44:24.449Z,4.95
2022-12-18T13:46:51.628Z,3.90
2022-12-18T13:49:29.959Z,4.57
2022-12-18T13:51:56.835Z,5.30
2022-12-18T13:54:33.994Z,4.55
2022-12-18T13:57:00.946Z,4.35
2022-12-18T13:59:34.275Z,4.13
2022-12-18T14:02:02.900Z,3.67
2022-12-18T14:04:31.838Z,3.42
2022-12-18T14:06:58.988Z,4.75
2022-12-18T14:09:27.597Z,4.90
2022-12-18T14:12:14.615Z,5.13
2022-12-18T14:14:44.289Z,5.40
2022-12-18T14:17:12.045Z,5.05
2022-12-18T14:19:42.682Z,5.50
2022-12-18T14:22:15.778Z,4.90
2022-12-18T14:24:42.160Z,4.70
2022-12-18T14:27:38.268Z,4.70
2022-12-18T14:30:24.200Z,4.28
2022-12-18T14:33:04.699Z,4.15
2022-12-18T14:35:31.698Z,4.38
2022-12-18T14:38:30.405Z,3.78
2022-12-18T14:40:58.254Z,3.80
2022-12-18T14:43:25.021Z,3.58
2022-12-18T14:45:52.603Z,4.13
2022-12-18T14:48:38.547Z,4.00
2022-12-18T14:51:07.579Z,4.22
2022-12-18T14:53:39.198Z,4.25
2022-12-18T14:56:20.657Z,3.90
2022-12-18T14:58:51.921Z,3.95
2022-12-18T15:01:19.429Z,4.40
2022-12-18T15:03:46.260Z,3.97
2022-12-18T15:06:27.027Z,4.32
2022-12-18T15:08:54.005Z,3.47
2022-12-18T15:11:38.951Z,3.72
2022-12-18T15:14:44.074Z,3.60
2022-12-18T15:17:20.821Z,3.63
2022-12-18T15:19:48.183Z,3.80
2022-12-18T15:22:26.027Z,4.00
2022-12-18T15:24:52.865Z,4.25
2022-12-18T15:27:33.125Z,4.40
2022-12-18T15:30:19.366Z,4.60
2022-12-18T15:32:46.219Z,4.50
2022-12-18T15:35:15.248Z,4.03
2022-12-18T15:37:42.150Z,4.47
2022-12-18T15:40:12.715Z,4.07
2022-12-18T15:42:57.741Z,3.78
2022-12-18T15:45:24.276Z,3.80
2022-12-18T15:47:50.707Z,4.15
2022-12-18T15:50:17.114Z,4.00
2022-12-18T15:52:46.593Z,4.85
2022-12-18T15:57:58.132Z,4.05
2022-12-18T16:00:24.546Z,3.35
2022-12-18T16:02:51.170Z,4.53
2022-12-18T16:05:18.541Z,3.75
2022-12-18T16:07:45.479Z,3.50
2022-12-18T16:10:12.147Z,3.65
2022-12-18T16:12:38.571Z,4.13
2022-12-18T16:15:05.892Z,3.95
2022-12-18T16:17:33.018Z,3.90
2022-12-18T16:19:59.578Z,3.45
2022-12-18T16:22:27.726Z,3.90
2022-12-18T16:24:55.061Z,3.78
2022-12-18T16:27:22.009Z,3.65
2022-12-18T16:29:48.727Z,4.13
2022-12-18T16:32:16.632Z,4.28
2022-12-18T16:34:43.245Z,4.50
2022-12-18T16:37:10.338Z,4.70
2022-12-18T16:39:37.421Z,4.32
2022-12-18T16:42:24.048Z,4.53
2022-12-18T16:44:50.550Z,4.35
2022-12-18T16:47:17.637Z,4.65
2022-12-18T16:49:45.944Z,4.88
2022-12-18T16:52:12.590Z,4.22
2022-12-18T16:54:39.276Z,4.70
2022-12-18T16:57:05.925Z,6.03
2022-12-18T16:59:35.514Z,5.65
2022-12-18T17:02:02.728Z,7.57
2022-12-18T17:04:29.258Z,7.18
2022-12-18T17:06:55.794Z,6.93
2022-12-18T17:09:25.498Z,7.18
2022-12-18T17:11:52.532Z,7.35
2022-12-18T17:14:20.138Z,7.07
2022-12-18T17:16:46.949Z,7.00
2022-12-18T17:19:17.259Z,6.93
2022-12-18T17:21:44.796Z,6.40
2022-12-18T17:24:11.179Z,6.40
2022-12-18T17:26:37.639Z,6.40
2022-12-18T17:29:04.353Z,7.05
2022-12-18T17:31:31.246Z,7.78
2022-12-18T17:33:58.082Z,7.03
2022-12-18T17:36:28.447Z,6.68
2022-12-18T17:38:56.071Z,6.90
2022-12-18T17:41:23.098Z,6.68
2022-12-18T17:43:56.982Z,6.75
2022-12-18T17:46:23.605Z,6.88
2022-12-18T17:48:50.228Z,6.70
2022-12-18T17:51:17.580Z,5.93
2022-12-18T17:53:44.406Z,7.43
2022-12-18T17:56:15.210Z,7.60
2022-12-18T17:58:42.093Z,7.13
2022-12-18T18:01:08.827Z,7.03
2022-12-18T18:03:41.542Z,7.73
2022-12-18T18:06:08.417Z,7.78
2022-12-18T18:08:36.072Z,6.53
2022-12-18T18:11:24.829Z,7.85
2022-12-18T18:14:04.684Z,7.55
2022-12-18T18:16:42.222Z,7.72
2022-12-18T18:19:10.145Z,7.85
2022-12-18T18:21:41.042Z,7.80
2022-12-18T18:24:08.323Z,7.65
2022-12-18T18:26:35.576Z,7.68
2022-12-18T18:29:05.087Z,8.07
2022-12-18T18:31:32.736Z,8.45
2022-12-18T18:34:02.341Z,7.88
2022-12-18T18:36:29.045Z,7.10
2022-12-18T18:38:58.849Z,7.20
2022-12-18T18:41:25.313Z,6.85
2022-12-18T18:43:56.068Z,7.68
2022-12-18T18:46:22.523Z,7.85
2022-12-18T18:48:49.036Z,7.78
2022-12-18T18:51:20.866Z,6.53
2022-12-18T18:53:49.337Z,7.20
2022-12-18T18:56:56.708Z,8.43
2022-12-18T18:59:04.264Z,6.22
2022-12-18T19:01:30.866Z,6.88
2022-12-18T19:03:57.429Z,6.82
2022-12-18T19:06:25.091Z,6.57
2022-12-18T19:08:52.918Z,7.07
2022-12-18T19:11:38.669Z,6.25
2022-12-18T19:14:06.508Z,7.32
2022-12-18T19:16:33.608Z,6.25
2022-12-18T19:19:01.796Z,6.78
2022-12-18T19:21:28.986Z,5.93
2022-12-18T19:23:58.201Z,7.55
2022-12-18T19:26:28.046Z,7.20
2022-12-18T19:29:00.043Z,5.82
2022-12-18T19:31:31.832Z,6.50
2022-12-18T19:34:01.695Z,6.07
2022-12-18T19:36:29.149Z,6.25
2022-12-18T19:38:56.972Z,6.53
2022-12-18T19:41:24.344Z,6.60
2022-12-18T19:43:52.370Z,6.67
2022-12-18T19:46:19.966Z,7.43
2022-12-18T19:48:46.927Z,7.65
2022-12-18T19:51:18.115Z,6.90
2022-12-18T19:53:44.715Z,7.03
2022-12-18T19:56:12.817Z,6.72
2022-12-18T19:58:39.527Z,7.45
2022-12-18T20:01:06.491Z,6.65
2022-12-18T20:03:34.624Z,7.28
2022-12-18T20:06:08.293Z,7.05
2022-12-18T20:08:34.710Z,6.97
2022-12-18T20:11:01.121Z,8.60
2022-12-18T20:13:27.616Z,8.27
2022-12-18T20:15:54.157Z,8.55
2022-12-18T20:18:23.359Z,7.22
2022-12-18T20:23:16.648Z,7.25
2022-12-18T20:25:43.483Z,8.02
2022-12-18T20:28:10.023Z,6.88
2022-12-18T20:30:36.722Z,6.97
2022-12-18T20:33:03.137Z,7.47
2022-12-18T20:35:31.171Z,7.50
2022-12-18T20:37:57.837Z,7.53
2022-12-18T20:40:25.967Z,8.20
2022-12-18T20:42:52.516Z,7.80
2022-12-18T20:45:19.783Z,7.72
2022-12-18T20:47:46.195Z,7.47
2022-12-18T20:50:12.623Z,6.63
2022-12-18T20:52:38.994Z,8.90
2022-12-18T20:55:06.119Z,8.27
2022-12-18T20:57:32.553Z,8.57
2022-12-18T20:59:59.043Z,8.68
2022-12-18T21:02:25.692Z,7.72
2022-12-18T21:04:53.259Z,8.70
2022-12-18T21:07:19.602Z,8.02
2022-12-18T21:09:45.966Z,8.15
2022-12-18T21:12:35.058Z,8.27
2022-12-18T21:15:14.632Z,7.72
2022-12-18T21:17:44.580Z,8.50
2022-12-18T21:20:11.685Z,8.15
2022-12-18T21:22:44.427Z,8.45
2022-12-18T21:25:10.900Z,8.32
2022-12-18T21:27:37.390Z,7.82
2022-12-18T21:30:04.215Z,8.07
2022-12-18T21:32:33.487Z,8.27
2022-12-18T21:35:00.155Z,9.65
2022-12-18T21:37:26.816Z,7.43
2022-12-18T21:39:53.261Z,7.78
2022-12-18T21:42:38.589Z,7.05
2022-12-18T21:45:05.264Z,7.68
2022-12-18T21:47:31.861Z,7.90
2022-12-18T21:49:58.405Z,7.38
2022-12-18T21:52:32.270Z,6.85
2022-12-18T21:55:08.385Z,7.72
2022-12-18T21:57:35.350Z,6.97
2022-12-18T22:00:02.236Z,7.30
2022-12-18T22:02:29.360Z,7.78
2022-12-18T22:04:55.972Z,6.38
2022-12-18T22:07:23.080Z,6.72
2022-12-18T22:09:51.156Z,7.25
2022-12-18T22:12:35.454Z,7.38
2022-12-18T22:15:03.341Z,6.68
2022-12-18T22:17:29.789Z,6.90
2022-12-18T22:19:57.170Z,7.63
2022-12-18T22:22:24.042Z,6.93
2022-12-18T22:24:50.450Z,7.07
2022-12-18T22:27:16.858Z,6.70
2022-12-18T22:30:02.008Z,6.63
2022-12-18T22:32:30.641Z,7.30
2022-12-18T22:35:04.866Z,7.82
2022-12-18T22:37:31.695Z,7.28
2022-12-18T22:39:58.190Z,7.15
2022-12-18T22:42:25.737Z,6.85
2022-12-18T22:44:52.221Z,7.68
2022-12-18T22:47:18.571Z,7.47
2022-12-18T22:49:45.035Z,6.30
2022-12-18T22:52:11.678Z,6.80
2022-12-18T22:54:38.595Z,7.43
2022-12-18T22:57:05.057Z,7.32
2022-12-18T22:59:31.838Z,7.03
2022-12-18T23:01:58.978Z,6.68
2022-12-18T23:04:29.141Z,6.93
2022-12-18T23:07:03.019Z,6.68
2022-12-18T23:09:29.536Z,7.07
2022-12-18T23:11:56.134Z,7.13
2022-12-18T23:14:22.942Z,6.63
2022-12-18T23:16:49.329Z,7.53
2022-12-18T23:19:18.758Z,6.70
2022-12-18T23:21:45.154Z,6.70
2022-12-18T23:24:11.596Z,6.50
2022-12-18T23:26:38.102Z,6.72
2022-12-18T23:29:04.734Z,6.85
2022-12-18T23:31:32.611Z,6.82
2022-12-18T23:34:00.098Z,7.22
2022-12-18T23:36:26.701Z,7.13
2022-12-18T23:38:54.213Z,8.20
2022-12-18T23:41:21.999Z,8.05
2022-12-18T23:43:48.570Z,7.70
2022-12-18T23:46:21.242Z,7.75
2022-12-18T23:48:48.187Z,7.97
2022-12-18T23:51:15.111Z,6.93
2022-12-18T23:53:42.070Z,8.60
2022-12-18T23:56:09.592Z,10.00
2022-12-18T23:58:36.350Z,8.32
